Pagrindinis puslapis
METAR-TAF:

METAR-TAF

Oro uostai :

Tawau, Malaizija

platuma: 04-16N, ilguma: 117-53E, Aukštis: 18 m

Dabartinis oras

Ataskaita buvo paskelbta 1 valandą ir 1 minutes, ne 02:00 UTC
Vėjas 9 kt iš Šiaurės Rytų, svyruoja nuo Šiaurės ir Rytų/Šiaurės Rytų
Temperatūra 30°C
Drėgmė 70%
Slėgis 1010 hPa
Matomumas 10 km arba daugiau
Mažai debesys ne aukštis 1700 ft

METAR: WBKW 290200Z 04009KT 360V070 9999 FEW017 30/24 Q1010

Laikas: 11:01 (03:01 UTC)

Prognozė

Ataskaita buvo paskelbta 4 valandos ir 1 minutes, ne 23:00 UTC
Prognozė galioja nuo 29 metu 00 UTC su 01 metu 00 UTC
Vėjas 3 kt nuo kintamojo kryptimis
Matomumas 10 km arba daugiau
Mažai debesys ne aukštis 1700 ft

TAF: WBKW 282300Z 2900/0100 VRB03KT 9999 FEW017

Orai ataskaitas ir orų prognozės (METAR, TAF).

turimą stotys yra geltonos ir raudonos taškus žemėlapyje.

Perkelti pele per norėdami pamatyti stoties vardą.

Tada spustelėkite, norėdami matyti oro stebėjimo ir prognozės.

Norėdami pakeisti žemėlapį: spustelėkite ant žalios mygtukų su juodo kryžiaus žemyn,; žalią mygtuką su brūkšneliu, jei norite nutolinti; arba žalių rodyklių gretimoms žemėlapius.


METAR-TAF: